createdAt,value
2019-01-18T00:01:21.009Z,95029.61
2019-01-18T00:03:47.444Z,95028.78
2019-01-18T00:06:13.845Z,95026.19
2019-01-18T00:08:40.238Z,95031.47
2019-01-18T00:11:06.595Z,95033.22
2019-01-18T00:13:32.947Z,95030.86
2019-01-18T00:15:59.280Z,95031.55
2019-01-18T00:18:25.613Z,95033.98
2019-01-18T00:20:51.950Z,95031.87
2019-01-18T00:23:18.476Z,95033.13
2019-01-18T00:25:44.818Z,95032.67
2019-01-18T00:28:11.158Z,95035.15
2019-01-18T00:30:37.578Z,95035.83
2019-01-18T00:33:04.000Z,95039.89
2019-01-18T00:35:30.437Z,95042.70
2019-01-18T00:37:56.810Z,95037.88
2019-01-18T00:40:32.046Z,95041.36
2019-01-18T00:42:58.427Z,95041.58
2019-01-18T00:45:24.759Z,95047.08
2019-01-18T00:47:51.164Z,95042.86
2019-01-18T00:50:17.450Z,95041.23
2019-01-18T00:52:43.839Z,95046.46
2019-01-18T00:55:10.166Z,95035.37
2019-01-18T00:57:36.516Z,95038.88
2019-01-18T01:00:02.901Z,95034.75
2019-01-18T01:02:29.231Z,95031.48
2019-01-18T01:04:55.723Z,95036.65
2019-01-18T01:07:22.162Z,95028.58
2019-01-18T01:09:48.585Z,95036.55
2019-01-18T01:12:14.916Z,95038.59
2019-01-18T01:14:41.230Z,95045.23
2019-01-18T01:17:07.577Z,95030.66
2019-01-18T01:19:33.963Z,95037.09
2019-01-18T01:22:00.318Z,95029.39
2019-01-18T01:24:26.720Z,95036.45
2019-01-18T01:26:53.180Z,95024.95
2019-01-18T01:29:19.560Z,95034.09
2019-01-18T01:31:45.925Z,95025.56
2019-01-18T01:34:12.277Z,95023.59
2019-01-18T01:36:38.629Z,95023.23
2019-01-18T01:39:04.961Z,95020.71
2019-01-18T01:41:31.306Z,95023.16
2019-01-18T01:43:57.646Z,95018.63
2019-01-18T01:46:23.967Z,95014.89
2019-01-18T01:48:50.340Z,95016.42
2019-01-18T01:51:16.673Z,95017.02
2019-01-18T01:53:43.015Z,95011.30
2019-01-18T01:56:09.363Z,95011.90
2019-01-18T01:58:35.738Z,95012.97
2019-01-18T02:01:02.061Z,95005.61
2019-01-18T02:03:28.547Z,95003.28
2019-01-18T02:05:54.935Z,95000.13
2019-01-18T02:08:21.355Z,95002.82
2019-01-18T02:10:47.671Z,95003.42
2019-01-18T02:13:14.008Z,94995.25
2019-01-18T02:15:40.346Z,94997.82
2019-01-18T02:18:06.676Z,94994.76
2019-01-18T02:20:33.003Z,94996.80
2019-01-18T02:22:59.326Z,94998.62
2019-01-18T02:25:25.693Z,95003.10
2019-01-18T02:27:52.029Z,95005.80
2019-01-18T02:30:18.364Z,94998.33
2019-01-18T02:32:44.718Z,95006.04
2019-01-18T02:35:11.089Z,95010.50
2019-01-18T02:37:37.430Z,95001.04
2019-01-18T02:40:03.756Z,95008.75
2019-01-18T02:42:30.127Z,95003.15
2019-01-18T02:44:56.408Z,95002.20
2019-01-18T02:47:22.844Z,94996.72
2019-01-18T02:49:49.176Z,94994.38
2019-01-18T02:52:15.591Z,95005.03
2019-01-18T02:54:42.023Z,95004.77
2019-01-18T02:57:08.360Z,94999.17
2019-01-18T02:59:34.690Z,94996.83
2019-01-18T03:02:01.060Z,95002.92
2019-01-18T03:04:27.399Z,94997.78
2019-01-18T03:06:53.729Z,95000.69
2019-01-18T03:09:20.089Z,95006.19
2019-01-18T03:11:46.419Z,94992.51
2019-01-18T03:14:12.773Z,94999.77
2019-01-18T03:16:39.203Z,94998.38
2019-01-18T03:19:05.585Z,94997.42
2019-01-18T03:21:31.914Z,94993.23
2019-01-18T03:23:58.297Z,94993.47
2019-01-18T03:26:24.636Z,94996.50
2019-01-18T03:28:51.071Z,94998.16
2019-01-18T03:31:17.449Z,94998.02
2019-01-18T03:33:43.774Z,94987.14
2019-01-18T03:36:10.103Z,94987.04
2019-01-18T03:38:36.433Z,94985.03
2019-01-18T03:41:02.770Z,94993.56
2019-01-18T03:43:29.093Z,94979.42
2019-01-18T03:45:55.497Z,94980.98
2019-01-18T03:48:21.825Z,94980.25
2019-01-18T03:50:48.190Z,94983.88
2019-01-18T03:53:14.555Z,94983.19
2019-01-18T03:55:40.918Z,94987.97
2019-01-18T03:58:07.258Z,94988.70
2019-01-18T04:00:33.660Z,94981.44
2019-01-18T04:02:59.953Z,94977.72
2019-01-18T04:05:26.288Z,94979.33
2019-01-18T04:07:52.670Z,94976.53
2019-01-18T04:10:19.003Z,94978.65
2019-01-18T04:12:45.325Z,94978.91
2019-01-18T04:15:11.673Z,94977.27
2019-01-18T04:17:38.103Z,94981.85
2019-01-18T04:20:04.416Z,94980.70
2019-01-18T04:22:30.842Z,94981.03
2019-01-18T04:24:57.175Z,94980.47
2019-01-18T04:27:23.564Z,94977.98
2019-01-18T04:29:49.902Z,94978.13
2019-01-18T04:32:16.283Z,94982.34
2019-01-18T04:34:42.614Z,94981.52
2019-01-18T04:37:08.958Z,94976.14
2019-01-18T04:39:35.289Z,94985.14
2019-01-18T04:42:01.642Z,94975.20
2019-01-18T04:44:28.025Z,94986.33
2019-01-18T04:46:54.358Z,94985.87
2019-01-18T04:49:20.682Z,94994.18
2019-01-18T04:51:47.019Z,94995.47
2019-01-18T04:54:13.430Z,94997.34
2019-01-18T04:56:39.777Z,94999.22
2019-01-18T04:59:06.103Z,94994.56
2019-01-18T05:01:32.430Z,94989.88
2019-01-18T05:03:58.765Z,94988.46
2019-01-18T05:06:25.182Z,94990.94
2019-01-18T05:08:51.564Z,94996.41
2019-01-18T05:11:17.966Z,95000.07
2019-01-18T05:13:44.306Z,95002.64
2019-01-18T05:16:10.636Z,95000.07
2019-01-18T05:18:37.068Z,94993.63
2019-01-18T05:21:03.402Z,94994.69
2019-01-18T05:23:29.752Z,94985.91
2019-01-18T05:25:56.161Z,94995.48
2019-01-18T05:28:22.494Z,94995.71
2019-01-18T05:30:48.822Z,94995.15
2019-01-18T05:33:15.237Z,95000.77
2019-01-18T05:35:41.564Z,95000.87
2019-01-18T05:38:07.955Z,94997.00
2019-01-18T05:40:34.314Z,94990.35
2019-01-18T05:43:00.633Z,94996.88
2019-01-18T05:45:26.962Z,94990.94
2019-01-18T05:47:53.307Z,94994.80
2019-01-18T05:50:19.682Z,94990.94
2019-01-18T05:52:46.013Z,94990.12
2019-01-18T05:55:12.448Z,94995.86
2019-01-18T05:57:38.849Z,95005.08
2019-01-18T06:00:05.184Z,95007.42
2019-01-18T06:02:31.652Z,95002.62
2019-01-18T06:04:58.040Z,94997.95
2019-01-18T06:07:24.375Z,95002.38
2019-01-18T06:09:50.704Z,94993.98
2019-01-18T06:12:17.052Z,94996.44
2019-01-18T06:14:43.396Z,94996.78
2019-01-18T06:17:09.735Z,95002.05
2019-01-18T06:19:36.056Z,95006.73
2019-01-18T06:22:02.388Z,95000.86
2019-01-18T06:24:28.793Z,95000.39
2019-01-18T06:26:55.199Z,95004.73
2019-01-18T06:29:21.555Z,95012.19
2019-01-18T06:31:47.963Z,95018.64
2019-01-18T06:34:14.297Z,95014.55
2019-01-18T06:36:40.722Z,95019.47
2019-01-18T06:39:07.006Z,95024.60
2019-01-18T06:41:33.334Z,95017.47
2019-01-18T06:43:59.762Z,95018.19
2019-01-18T06:46:26.314Z,95020.94
2019-01-18T06:48:52.735Z,95010.63
2019-01-18T06:51:19.097Z,95020.94
2019-01-18T06:53:45.432Z,95023.66
2019-01-18T06:56:11.806Z,95021.28
2019-01-18T06:58:38.151Z,95014.25
2019-01-18T07:01:08.468Z,95019.97
2019-01-18T07:03:30.994Z,95028.61
2019-01-18T07:05:57.348Z,95019.41
2019-01-18T07:08:23.781Z,95018.27
2019-01-18T07:10:50.133Z,95022.13
2019-01-18T07:13:16.941Z,95023.86
2019-01-18T07:15:43.273Z,95018.80
2019-01-18T07:18:09.652Z,95027.84
2019-01-18T07:20:35.944Z,95020.34
2019-01-18T07:23:02.372Z,95015.87
2019-01-18T07:25:28.725Z,95008.95
2019-01-18T07:27:55.124Z,95013.50
2019-01-18T07:30:21.452Z,95008.84
2019-01-18T07:32:47.789Z,94998.84
2019-01-18T07:35:14.153Z,95006.69
2019-01-18T07:37:40.492Z,95003.34
2019-01-18T07:40:06.830Z,95009.75
2019-01-18T07:42:33.160Z,95010.69
2019-01-18T07:44:59.568Z,95007.18
2019-01-18T07:47:28.082Z,95012.19
2019-01-18T07:49:54.451Z,95006.45
2019-01-18T07:52:20.755Z,95008.73
2019-01-18T07:54:47.092Z,95019.17
2019-01-18T07:57:13.463Z,95020.41
2019-01-18T07:59:39.802Z,95019.21
2019-01-18T08:02:06.181Z,95021.85
2019-01-18T08:04:32.518Z,95023.45
2019-01-18T08:06:58.905Z,95035.48
2019-01-18T08:09:25.302Z,95036.01
2019-01-18T08:11:52.864Z,95034.30
2019-01-18T08:14:19.153Z,95046.02
2019-01-18T08:16:45.556Z,95055.27
2019-01-18T08:19:11.880Z,95050.45
2019-01-18T08:21:38.219Z,95045.88
2019-01-18T08:24:04.564Z,95049.73
2019-01-18T08:26:30.899Z,95057.33
2019-01-18T08:28:59.871Z,95047.41
2019-01-18T08:31:29.048Z,95049.80
2019-01-18T08:33:52.536Z,95056.70
2019-01-18T08:36:18.878Z,95056.23
2019-01-18T08:38:45.269Z,95049.90
2019-01-18T08:41:12.988Z,95048.34
2019-01-18T08:43:37.985Z,95044.36
2019-01-18T08:46:04.323Z,95046.48
2019-01-18T08:48:30.670Z,95050.62
2019-01-18T08:50:57.005Z,95045.09
2019-01-18T08:53:23.350Z,95040.44
2019-01-18T08:55:50.754Z,95038.26
2019-01-18T08:58:17.119Z,95039.71
2019-01-18T09:00:43.471Z,95037.71
2019-01-18T09:03:09.829Z,95038.18
2019-01-18T09:05:37.469Z,95030.80
2019-01-18T09:08:04.105Z,95037.81
2019-01-18T09:10:30.456Z,95036.05
2019-01-18T09:12:57.002Z,95031.84
2019-01-18T09:15:23.342Z,95020.30
2019-01-18T09:17:49.714Z,95011.14
2019-01-18T09:20:16.109Z,95013.72
2019-01-18T09:22:42.482Z,95014.19
2019-01-18T09:25:08.930Z,95005.52
2019-01-18T09:27:35.277Z,95016.63
2019-01-18T09:30:01.604Z,95016.19
2019-01-18T09:32:28.023Z,95005.27
2019-01-18T09:34:54.969Z,95001.55
2019-01-18T09:37:20.895Z,94988.27
2019-01-18T09:39:47.279Z,94976.63
2019-01-18T09:42:13.620Z,94981.45
2019-01-18T09:44:40.019Z,94972.41
2019-01-18T09:47:07.448Z,94965.59
2019-01-18T09:49:32.785Z,94968.75
2019-01-18T09:51:59.180Z,94973.45
2019-01-18T09:54:25.613Z,94969.81
2019-01-18T09:56:52.036Z,94965.09
2019-01-18T09:59:18.426Z,94964.16
2019-01-18T10:01:49.481Z,94958.42
2019-01-18T10:04:12.310Z,94961.47
2019-01-18T10:06:38.701Z,94960.53
2019-01-18T10:09:05.043Z,94951.45
2019-01-18T10:11:31.498Z,94954.69
2019-01-18T10:13:57.843Z,94953.25
2019-01-18T10:16:24.183Z,94951.15
2019-01-18T10:18:50.586Z,94952.67
2019-01-18T10:21:17.002Z,94942.69
2019-01-18T10:23:43.430Z,94931.09
2019-01-18T10:26:09.780Z,94930.98
2019-01-18T10:28:36.148Z,94929.45
2019-01-18T10:31:02.471Z,94929.59
2019-01-18T10:33:29.706Z,94915.22
2019-01-18T10:35:56.049Z,94912.34
2019-01-18T10:38:22.377Z,94919.64
2019-01-18T10:40:48.758Z,94921.09
2019-01-18T10:43:15.098Z,94907.50
2019-01-18T10:45:41.532Z,94911.78
2019-01-18T10:48:07.866Z,94902.39
2019-01-18T10:50:34.193Z,94903.50
2019-01-18T10:53:00.602Z,94889.66
2019-01-18T10:55:27.936Z,94898.81
2019-01-18T10:57:54.328Z,94898.31
2019-01-18T11:00:20.662Z,94903.92
2019-01-18T11:02:47.047Z,94902.27
2019-01-18T11:05:13.480Z,94891.91
2019-01-18T11:07:39.879Z,94891.64
2019-01-18T11:10:06.283Z,94899.72
2019-01-18T11:12:32.695Z,94894.22
2019-01-18T11:14:59.174Z,94898.51
2019-01-18T11:17:25.657Z,94880.08
2019-01-18T11:19:52.437Z,94891.18
2019-01-18T11:22:18.921Z,94879.72
2019-01-18T11:24:45.296Z,94870.20
2019-01-18T11:27:11.686Z,94869.30
2019-01-18T11:29:38.046Z,94867.33
2019-01-18T11:32:04.425Z,94860.04
2019-01-18T11:34:30.915Z,94854.73
2019-01-18T11:36:58.267Z,94850.66
2019-01-18T11:39:24.875Z,94847.13
2019-01-18T11:41:51.305Z,94852.02
2019-01-18T11:44:17.735Z,94849.72
2019-01-18T11:46:44.066Z,94850.94
2019-01-18T11:49:12.199Z,94846.98
2019-01-18T11:51:38.676Z,94847.21
2019-01-18T11:54:05.042Z,94845.92
2019-01-18T11:56:31.529Z,94846.52
2019-01-18T11:58:58.026Z,94845.57
2019-01-18T12:01:24.434Z,94845.42
2019-01-18T12:03:50.851Z,94857.40
2019-01-18T12:06:17.207Z,94857.27
2019-01-18T12:08:44.496Z,94865.63
2019-01-18T12:11:11.065Z,94861.89
2019-01-18T12:13:37.475Z,94854.88
2019-01-18T12:16:06.077Z,94852.14
2019-01-18T12:18:32.481Z,94856.36
2019-01-18T12:20:59.176Z,94854.60
2019-01-18T12:23:25.570Z,94858.02
2019-01-18T12:25:51.984Z,94858.80
2019-01-18T12:28:18.490Z,94858.00
2019-01-18T12:30:44.905Z,94852.00
2019-01-18T12:33:11.335Z,94850.30
2019-01-18T12:35:37.734Z,94859.02
2019-01-18T12:38:04.126Z,94855.73
2019-01-18T12:40:30.511Z,94859.56
2019-01-18T12:42:57.842Z,94862.36
2019-01-18T12:45:23.265Z,94855.55
2019-01-18T12:47:49.677Z,94855.44
2019-01-18T12:50:16.060Z,94859.90
2019-01-18T12:52:42.390Z,94866.16
2019-01-18T12:55:08.933Z,94858.76
2019-01-18T12:57:35.353Z,94855.20
2019-01-18T13:00:01.699Z,94860.53
2019-01-18T13:02:28.047Z,94855.63
2019-01-18T13:04:54.458Z,94853.32
2019-01-18T13:07:20.796Z,94862.22
2019-01-18T13:09:47.220Z,94860.26
2019-01-18T13:12:13.561Z,94849.09
2019-01-18T13:14:42.171Z,94858.69
2019-01-18T13:17:08.527Z,94865.78
2019-01-18T13:19:34.920Z,94857.75
2019-01-18T13:22:01.292Z,94864.02
2019-01-18T13:24:27.664Z,94873.81
2019-01-18T13:26:54.068Z,94864.06
2019-01-18T13:29:20.461Z,94869.23
2019-01-18T13:31:46.831Z,94869.70
2019-01-18T13:34:15.440Z,94867.34
2019-01-18T13:36:41.792Z,94864.44
2019-01-18T13:39:08.163Z,94870.67
2019-01-18T13:41:34.532Z,94865.23
2019-01-18T13:44:00.872Z,94855.84
2019-01-18T13:46:27.380Z,94854.62
2019-01-18T13:48:53.805Z,94864.41
2019-01-18T13:51:20.164Z,94851.48
2019-01-18T13:53:46.568Z,94873.53
2019-01-18T13:56:12.909Z,94861.63
2019-01-18T13:58:41.408Z,94851.02
2019-01-18T14:01:07.799Z,94854.70
2019-01-18T14:03:34.146Z,94865.03
2019-01-18T14:06:00.510Z,94864.77
2019-01-18T14:08:26.853Z,94871.22
2019-01-18T14:10:53.249Z,94859.52
2019-01-18T14:13:19.613Z,94865.43
2019-01-18T14:15:46.001Z,94866.92
2019-01-18T14:18:12.367Z,94859.09
2019-01-18T14:20:38.764Z,94856.77
2019-01-18T14:23:05.215Z,94859.52
2019-01-18T14:25:31.551Z,94851.02
2019-01-18T14:27:57.923Z,94849.37
2019-01-18T14:30:24.305Z,94852.50
2019-01-18T14:32:55.467Z,94851.69
2019-01-18T14:35:16.983Z,94841.89
2019-01-18T14:37:43.503Z,94843.34
2019-01-18T14:40:10.050Z,94829.98
2019-01-18T14:42:36.432Z,94832.56
2019-01-18T14:45:02.865Z,94841.14
2019-01-18T14:47:29.195Z,94835.08
2019-01-18T14:49:55.610Z,94830.92
2019-01-18T14:52:21.956Z,94840.75
2019-01-18T14:54:48.298Z,94845.96
2019-01-18T14:57:14.740Z,94843.53
2019-01-18T14:59:41.110Z,94827.88
2019-01-18T15:02:07.444Z,94840.20
2019-01-18T15:04:33.851Z,94843.11
2019-01-18T15:07:00.208Z,94855.16
2019-01-18T15:09:26.574Z,94859.44
2019-01-18T15:11:52.910Z,94856.45
2019-01-18T15:14:19.291Z,94861.86
2019-01-18T15:16:45.627Z,94854.42
2019-01-18T15:19:12.051Z,94859.09
2019-01-18T15:21:38.486Z,94864.06
2019-01-18T15:24:04.826Z,94857.55
2019-01-18T15:26:31.168Z,94862.44
2019-01-18T15:28:57.626Z,94865.34
2019-01-18T15:31:24.104Z,94862.56
2019-01-18T15:33:50.516Z,94858.56
2019-01-18T15:36:16.917Z,94861.00
2019-01-18T15:38:43.326Z,94862.22
2019-01-18T15:41:09.796Z,94862.56
2019-01-18T15:43:36.100Z,94858.77
2019-01-18T15:46:02.479Z,94865.30
2019-01-18T15:48:28.820Z,94867.60
2019-01-18T15:50:55.230Z,94867.10
2019-01-18T15:53:21.564Z,94867.17
2019-01-18T15:55:47.902Z,94868.34
2019-01-18T15:58:14.276Z,94869.69
2019-01-18T16:00:40.626Z,94863.72
2019-01-18T16:03:06.952Z,94870.22
2019-01-18T16:05:33.280Z,94871.80
2019-01-18T16:07:59.636Z,94862.64
2019-01-18T16:10:26.067Z,94858.28
2019-01-18T16:12:52.402Z,94857.66
2019-01-18T16:15:18.751Z,94860.38
2019-01-18T16:17:45.186Z,94868.67
2019-01-18T16:20:11.521Z,94869.02
2019-01-18T16:22:37.867Z,94864.75
2019-01-18T16:25:04.258Z,94864.87
2019-01-18T16:27:30.595Z,94858.33
2019-01-18T16:29:56.945Z,94859.89
2019-01-18T16:32:23.288Z,94869.14
2019-01-18T16:34:49.635Z,94861.34
2019-01-18T16:37:15.978Z,94856.48
2019-01-18T16:39:42.309Z,94861.97
2019-01-18T16:42:08.672Z,94872.04
2019-01-18T16:44:35.112Z,94882.59
2019-01-18T16:47:01.442Z,94878.11
2019-01-18T16:49:31.070Z,94882.80
2019-01-18T16:51:57.391Z,94885.51
2019-01-18T16:54:23.724Z,94883.95
2019-01-18T16:56:50.101Z,94886.18
2019-01-18T16:59:16.537Z,94886.25
2019-01-18T17:01:42.901Z,94883.81
2019-01-18T17:04:09.235Z,94884.87
2019-01-18T17:06:35.601Z,94886.39
2019-01-18T17:09:02.002Z,94890.18
2019-01-18T17:11:28.371Z,94894.64
2019-01-18T17:13:54.745Z,94884.84
2019-01-18T17:16:21.092Z,94874.36
2019-01-18T17:18:47.416Z,94883.84
2019-01-18T17:21:13.753Z,94891.59
2019-01-18T17:23:40.117Z,94902.74
2019-01-18T17:26:06.444Z,94892.56
2019-01-18T17:28:32.799Z,94890.95
2019-01-18T17:30:59.132Z,94892.67
2019-01-18T17:33:25.511Z,94891.97
2019-01-18T17:35:51.842Z,94892.70
2019-01-18T17:38:18.242Z,94893.23
2019-01-18T17:40:44.576Z,94889.21
2019-01-18T17:43:11.031Z,94888.95
2019-01-18T17:45:37.395Z,94888.89
2019-01-18T17:48:03.738Z,94890.66
2019-01-18T17:50:30.076Z,94890.77
2019-01-18T17:52:56.454Z,94889.01
2019-01-18T17:55:22.839Z,94887.60
2019-01-18T17:57:49.167Z,94886.55
2019-01-18T18:00:15.563Z,94887.52
2019-01-18T18:02:41.915Z,94896.81
2019-01-18T18:05:08.259Z,94891.91
2019-01-18T18:07:34.638Z,94882.90
2019-01-18T18:10:01.025Z,94881.61
2019-01-18T18:12:27.381Z,94887.65
2019-01-18T18:14:53.732Z,94883.33
2019-01-18T18:17:20.140Z,94881.98
2019-01-18T18:19:46.495Z,94890.30
2019-01-18T18:22:12.837Z,94886.94
2019-01-18T18:24:39.240Z,94882.61
2019-01-18T18:27:05.531Z,94883.23
2019-01-18T18:29:31.870Z,94891.44
2019-01-18T18:31:58.265Z,94889.80
2019-01-18T18:34:24.605Z,94896.55
2019-01-18T18:36:50.937Z,94892.89
2019-01-18T18:39:17.266Z,94890.92
2019-01-18T18:41:43.656Z,94898.66
2019-01-18T18:44:10.137Z,94895.05
2019-01-18T18:46:36.459Z,94889.65
2019-01-18T18:49:02.798Z,94898.36
2019-01-18T18:51:29.145Z,94899.41
2019-01-18T18:53:55.513Z,94900.02
2019-01-18T18:56:21.887Z,94895.30
2019-01-18T18:58:48.218Z,94904.47
2019-01-18T19:01:14.548Z,94907.30
2019-01-18T19:03:41.235Z,94904.01
2019-01-18T19:06:07.248Z,94903.33
2019-01-18T19:08:33.578Z,94899.46
2019-01-18T19:10:59.919Z,94901.36
2019-01-18T19:13:26.270Z,94909.09
2019-01-18T19:15:52.615Z,94917.41
2019-01-18T19:18:18.971Z,94910.54
2019-01-18T19:20:45.291Z,94912.41
2019-01-18T19:23:11.629Z,94909.36
2019-01-18T19:25:38.014Z,94915.70
2019-01-18T19:28:04.346Z,94913.02
2019-01-18T19:30:30.686Z,94906.47
2019-01-18T19:32:57.074Z,94903.56
2019-01-18T19:35:23.405Z,94907.44
2019-01-18T19:37:49.819Z,94911.05
2019-01-18T19:40:16.158Z,94904.53
2019-01-18T19:42:42.595Z,94917.18
2019-01-18T19:45:08.925Z,94929.50
2019-01-18T19:47:35.257Z,94933.83
2019-01-18T19:50:01.595Z,94924.23
2019-01-18T19:52:27.920Z,94932.58
2019-01-18T19:54:54.251Z,94936.44
2019-01-18T19:57:20.589Z,94932.47
2019-01-18T19:59:46.976Z,94946.04
2019-01-18T20:02:13.350Z,94947.22
2019-01-18T20:04:39.737Z,94935.54
2019-01-18T20:07:06.114Z,94943.52
2019-01-18T20:09:32.418Z,94940.34
2019-01-18T20:11:58.747Z,94936.03
2019-01-18T20:14:25.146Z,94938.72
2019-01-18T20:16:51.442Z,94930.88
2019-01-18T20:19:18.527Z,94934.42
2019-01-18T20:21:44.142Z,94940.86
2019-01-18T20:24:10.476Z,94945.05
2019-01-18T20:26:36.802Z,94940.17
2019-01-18T20:29:03.159Z,94940.53
2019-01-18T20:31:29.497Z,94935.09
2019-01-18T20:33:55.896Z,94936.30
2019-01-18T20:36:22.276Z,94951.77
2019-01-18T20:38:48.629Z,94953.27
2019-01-18T20:41:14.954Z,94962.64
2019-01-18T20:43:41.336Z,94955.98
2019-01-18T20:46:07.668Z,94955.39
2019-01-18T20:48:33.990Z,94960.92
2019-01-18T20:51:00.356Z,94954.14
2019-01-18T20:53:26.725Z,94967.62
2019-01-18T20:55:53.072Z,94966.34
2019-01-18T20:58:19.418Z,94967.73
2019-01-18T21:00:45.772Z,94968.91
2019-01-18T21:03:12.146Z,94983.22
2019-01-18T21:05:38.478Z,94964.23
2019-01-18T21:08:04.841Z,94976.42
2019-01-18T21:10:31.198Z,94971.28
2019-01-18T21:12:57.529Z,94974.18
2019-01-18T21:15:23.849Z,94979.47
2019-01-18T21:17:50.199Z,94978.41
2019-01-18T21:20:16.636Z,94989.77
2019-01-18T21:22:43.070Z,94988.59
2019-01-18T21:25:09.434Z,95001.56
2019-01-18T21:27:35.781Z,94999.58
2019-01-18T21:30:02.129Z,95002.29
2019-01-18T21:32:28.441Z,95000.05
2019-01-18T21:34:54.821Z,94999.59
2019-01-18T21:37:21.145Z,94999.06
2019-01-18T21:39:47.483Z,94999.06
2019-01-18T21:42:13.894Z,94998.38
2019-01-18T21:44:40.176Z,95001.41
2019-01-18T21:47:06.486Z,94991.50
2019-01-18T21:49:32.862Z,94992.04
2019-01-18T21:51:59.148Z,94989.59
2019-01-18T21:54:25.467Z,94996.39
2019-01-18T21:56:51.879Z,94998.47
2019-01-18T21:59:18.126Z,94998.70
2019-01-18T22:01:44.462Z,95000.69
2019-01-18T22:04:10.833Z,94996.73
2019-01-18T22:06:37.183Z,94997.29
2019-01-18T22:09:03.547Z,94988.28
2019-01-18T22:11:29.908Z,94988.88
2019-01-18T22:13:56.277Z,94991.91
2019-01-18T22:16:22.618Z,95001.74
2019-01-18T22:18:49.012Z,94989.21
2019-01-18T22:21:15.365Z,94984.20
2019-01-18T22:23:41.694Z,94987.00
2019-01-18T22:26:08.152Z,94977.04
2019-01-18T22:28:34.489Z,94980.80
2019-01-18T22:31:00.882Z,94982.55
2019-01-18T22:33:27.212Z,94977.98
2019-01-18T22:35:53.552Z,94977.27
2019-01-18T22:38:19.939Z,94975.52
2019-01-18T22:40:46.266Z,94979.38
2019-01-18T22:43:12.634Z,94972.34
2019-01-18T22:45:38.961Z,94973.27
2019-01-18T22:48:05.291Z,94968.26
2019-01-18T22:50:31.615Z,94973.41
2019-01-18T22:52:58.010Z,94983.09
2019-01-18T22:55:24.368Z,94977.95
2019-01-18T22:57:50.722Z,94976.77
2019-01-18T23:00:17.073Z,94972.67
2019-01-18T23:02:43.477Z,94976.40
2019-01-18T23:05:09.868Z,94976.03
2019-01-18T23:07:36.196Z,94976.16
2019-01-18T23:10:02.526Z,94976.16
2019-01-18T23:12:28.923Z,94979.19
2019-01-18T23:14:55.260Z,94972.30
2019-01-18T23:17:21.590Z,94979.88
2019-01-18T23:19:47.926Z,94994.15
2019-01-18T23:22:14.303Z,95000.67
2019-01-18T23:24:40.633Z,94998.92
2019-01-18T23:27:06.985Z,94999.02
2019-01-18T23:29:33.367Z,95003.30
2019-01-18T23:31:59.738Z,95009.53
2019-01-18T23:34:27.183Z,95005.53
2019-01-18T23:36:52.380Z,95004.70
2019-01-18T23:39:18.727Z,95014.04
2019-01-18T23:41:45.100Z,95014.85
2019-01-18T23:44:11.438Z,95010.41
2019-01-18T23:46:37.815Z,95013.78
2019-01-18T23:49:04.132Z,95018.34
2019-01-18T23:51:30.501Z,95020.67
2019-01-18T23:53:56.827Z,95024.16
2019-01-18T23:56:23.155Z,95026.64
2019-01-18T23:58:49.497Z,95028.73
